createdAt,value
2018-08-27T00:00:27.068Z,1.45
2018-08-27T00:02:55.305Z,5.75
2018-08-27T00:05:23.513Z,2.77
2018-08-27T00:07:51.735Z,1.92
2018-08-27T00:10:19.936Z,2.13
2018-08-27T00:12:48.160Z,2.72
2018-08-27T00:15:16.369Z,1.63
2018-08-27T00:17:44.615Z,2.55
2018-08-27T00:20:12.813Z,2.00
2018-08-27T00:22:41.285Z,4.92
2018-08-27T00:25:09.496Z,1.92
2018-08-27T00:27:37.737Z,1.50
2018-08-27T00:30:06.133Z,3.25
2018-08-27T00:32:34.357Z,2.37
2018-08-27T00:35:02.739Z,2.50
2018-08-27T00:37:30.977Z,3.30
2018-08-27T00:39:59.208Z,1.92
2018-08-27T00:42:27.452Z,2.30
2018-08-27T00:44:55.652Z,6.15
2018-08-27T00:47:23.956Z,2.15
2018-08-27T00:49:52.153Z,5.20
2018-08-27T00:52:20.424Z,5.58
2018-08-27T00:54:48.628Z,4.60
2018-08-27T00:57:16.880Z,3.62
2018-08-27T00:59:45.082Z,2.37
2018-08-27T01:02:13.305Z,3.72
2018-08-27T01:04:41.512Z,1.27
2018-08-27T01:07:09.756Z,2.42
2018-08-27T01:09:37.957Z,4.97
2018-08-27T01:12:06.237Z,2.90
2018-08-27T01:14:34.432Z,3.40
2018-08-27T01:17:02.640Z,3.00
2018-08-27T01:19:30.849Z,6.70
2018-08-27T01:21:59.072Z,2.20
2018-08-27T01:24:27.288Z,2.60
2018-08-27T01:26:55.516Z,6.25
2018-08-27T01:29:23.724Z,9.03
2018-08-27T01:31:57.271Z,4.87
2018-08-27T01:34:25.464Z,4.17
2018-08-27T01:36:53.667Z,3.87
2018-08-27T01:39:21.904Z,5.17
2018-08-27T01:41:50.104Z,6.33
2018-08-27T01:44:18.312Z,4.28
2018-08-27T01:46:46.496Z,4.95
2018-08-27T01:49:14.752Z,2.60
2018-08-27T01:51:42.992Z,4.00
2018-08-27T01:54:11.212Z,3.77
2018-08-27T01:56:39.404Z,2.10
2018-08-27T01:59:07.668Z,3.20
2018-08-27T02:01:35.895Z,4.90
2018-08-27T02:04:04.305Z,3.85
2018-08-27T02:06:36.444Z,2.90
2018-08-27T02:09:06.956Z,2.17
2018-08-27T02:11:35.164Z,3.10
2018-08-27T02:14:03.392Z,3.30
2018-08-27T02:16:31.602Z,2.80
2018-08-27T02:18:59.824Z,4.72
2018-08-27T02:21:28.044Z,3.15
2018-08-27T02:23:56.288Z,6.60
2018-08-27T02:26:24.483Z,2.02
2018-08-27T02:28:52.703Z,2.60
2018-08-27T02:31:20.957Z,3.80
2018-08-27T02:33:49.197Z,5.33
2018-08-27T02:36:17.396Z,3.50
2018-08-27T02:38:45.621Z,4.42
2018-08-27T02:41:13.835Z,3.85
2018-08-27T02:43:42.064Z,3.50
2018-08-27T02:46:10.285Z,4.12
2018-08-27T02:48:38.531Z,2.30
2018-08-27T02:51:06.788Z,2.02
2018-08-27T02:53:35.044Z,4.60
2018-08-27T02:56:03.264Z,4.87
2018-08-27T02:58:31.501Z,2.42
2018-08-27T03:00:59.712Z,3.30
2018-08-27T03:03:27.940Z,3.22
2018-08-27T03:05:56.140Z,4.03
2018-08-27T03:08:24.364Z,4.07
2018-08-27T03:10:52.611Z,5.95
2018-08-27T03:13:20.832Z,2.33
2018-08-27T03:15:49.035Z,4.10
2018-08-27T03:18:17.298Z,2.95
2018-08-27T03:20:46.594Z,4.80
2018-08-27T03:23:16.225Z,4.60
2018-08-27T03:25:45.902Z,3.87
2018-08-27T03:28:15.301Z,2.20
2018-08-27T03:30:44.719Z,4.50
2018-08-27T03:33:14.169Z,3.98
2018-08-27T03:35:43.437Z,3.50
2018-08-27T03:38:12.795Z,4.10
2018-08-27T03:40:42.132Z,5.47
2018-08-27T03:43:12.424Z,2.00
2018-08-27T03:45:42.238Z,6.10
2018-08-27T03:48:11.592Z,5.30
2018-08-27T03:50:41.070Z,2.53
2018-08-27T03:53:10.413Z,2.50
2018-08-27T03:55:40.073Z,5.47
2018-08-27T03:58:08.956Z,2.90
2018-08-27T04:00:37.600Z,2.50
2018-08-27T04:03:06.835Z,2.70
2018-08-27T04:05:36.093Z,7.45
2018-08-27T04:08:05.178Z,5.50
2018-08-27T04:10:34.520Z,2.42
2018-08-27T04:13:03.431Z,4.50
2018-08-27T04:15:32.806Z,7.97
2018-08-27T04:18:01.635Z,2.97
2018-08-27T04:20:30.974Z,6.45
2018-08-27T04:23:00.188Z,4.63
2018-08-27T04:25:29.725Z,2.60
2018-08-27T04:27:59.060Z,1.87
2018-08-27T04:30:28.960Z,3.10
2018-08-27T04:32:58.254Z,2.70
2018-08-27T04:35:27.694Z,2.53
2018-08-27T04:37:57.075Z,5.30
2018-08-27T04:40:26.366Z,2.92
2018-08-27T04:42:55.590Z,3.33
2018-08-27T04:45:24.550Z,3.83
2018-08-27T04:47:53.727Z,3.05
2018-08-27T04:50:23.099Z,2.80
2018-08-27T04:52:52.522Z,4.28
2018-08-27T04:55:21.628Z,4.10
2018-08-27T04:57:50.891Z,7.20
2018-08-27T05:00:24.067Z,2.20
2018-08-27T05:02:53.267Z,1.80
2018-08-27T05:05:22.783Z,3.22
2018-08-27T05:07:52.176Z,6.10
2018-08-27T05:10:21.503Z,4.97
2018-08-27T05:12:50.972Z,3.90
2018-08-27T05:15:20.652Z,3.37
2018-08-27T05:17:49.837Z,5.00
2018-08-27T05:20:19.621Z,1.90
2018-08-27T05:22:48.855Z,4.70
2018-08-27T05:25:17.770Z,4.35
2018-08-27T05:27:47.888Z,3.85
2018-08-27T05:30:17.048Z,3.42
2018-08-27T05:32:45.328Z,3.87
2018-08-27T05:35:13.588Z,3.85
2018-08-27T05:37:41.832Z,2.62
2018-08-27T05:40:10.817Z,4.30
2018-08-27T05:42:39.053Z,5.17
2018-08-27T05:45:07.344Z,3.47
2018-08-27T05:47:35.618Z,3.40
2018-08-27T05:50:03.961Z,4.33
2018-08-27T05:52:32.223Z,5.00
2018-08-27T05:55:00.579Z,4.10
2018-08-27T05:57:28.799Z,5.37
2018-08-27T05:59:57.032Z,8.35
2018-08-27T06:02:25.232Z,2.87
2018-08-27T06:04:53.461Z,9.38
2018-08-27T06:07:21.662Z,4.93
2018-08-27T06:09:49.955Z,2.95
2018-08-27T06:12:18.137Z,3.73
2018-08-27T06:14:46.368Z,4.90
2018-08-27T06:17:14.694Z,6.55
2018-08-27T06:19:42.880Z,4.85
2018-08-27T06:22:11.188Z,5.78
2018-08-27T06:24:39.292Z,2.75
2018-08-27T06:27:07.512Z,3.80
2018-08-27T06:29:35.708Z,2.10
2018-08-27T06:32:04.053Z,4.50
2018-08-27T06:34:32.260Z,2.70
2018-08-27T06:37:00.501Z,2.50
2018-08-27T06:39:28.712Z,4.20
2018-08-27T06:41:56.946Z,3.00
2018-08-27T06:44:25.224Z,7.65
2018-08-27T06:46:53.409Z,7.07
2018-08-27T06:49:21.659Z,4.22
2018-08-27T06:51:49.919Z,6.58
2018-08-27T06:54:18.136Z,5.15
2018-08-27T06:56:46.399Z,3.65
2018-08-27T06:59:14.582Z,4.77
2018-08-27T07:01:42.829Z,2.60
2018-08-27T07:04:11.036Z,7.00
2018-08-27T07:06:39.273Z,5.35
2018-08-27T07:09:09.108Z,5.85
2018-08-27T07:11:37.420Z,4.67
2018-08-27T07:14:05.913Z,4.85
2018-08-27T07:16:34.128Z,3.23
2018-08-27T07:19:02.364Z,2.83
2018-08-27T07:21:30.589Z,4.65
2018-08-27T07:23:58.804Z,4.30
2018-08-27T07:26:27.028Z,10.10
2018-08-27T07:28:55.231Z,3.37
2018-08-27T07:31:23.474Z,2.25
2018-08-27T07:33:51.683Z,3.17
2018-08-27T07:36:19.925Z,5.90
2018-08-27T07:38:48.128Z,3.62
2018-08-27T07:41:16.344Z,5.35
2018-08-27T07:43:44.541Z,1.80
2018-08-27T07:46:12.788Z,3.30
2018-08-27T07:48:40.988Z,5.75
2018-08-27T07:51:09.254Z,2.50
2018-08-27T07:53:37.500Z,2.40
2018-08-27T07:56:05.805Z,2.22
2018-08-27T07:58:34.040Z,2.60
2018-08-27T08:01:02.260Z,2.60
2018-08-27T08:03:30.466Z,4.33
2018-08-27T08:05:58.770Z,2.20
2018-08-27T08:08:26.941Z,3.40
2018-08-27T08:10:55.180Z,3.33
2018-08-27T08:13:23.437Z,3.10
2018-08-27T08:15:51.696Z,3.70
2018-08-27T08:18:20.633Z,2.47
2018-08-27T08:20:49.615Z,5.10
2018-08-27T08:23:18.191Z,2.98
2018-08-27T08:25:46.603Z,3.58
2018-08-27T08:28:14.828Z,2.70
2018-08-27T08:30:43.049Z,4.42
2018-08-27T08:33:11.795Z,9.75
2018-08-27T08:35:39.953Z,3.42
2018-08-27T08:38:08.232Z,4.15
2018-08-27T08:40:36.424Z,3.65
2018-08-27T08:43:04.661Z,3.90
2018-08-27T08:45:32.884Z,4.85
2018-08-27T08:48:01.168Z,4.67
2018-08-27T08:50:29.400Z,4.25
2018-08-27T08:52:57.623Z,3.67
2018-08-27T08:55:26.260Z,5.30
2018-08-27T08:57:54.504Z,3.95
2018-08-27T09:00:22.715Z,6.00
2018-08-27T09:02:50.952Z,6.20
2018-08-27T09:05:19.200Z,5.35
2018-08-27T09:07:47.437Z,4.85
2018-08-27T09:10:15.735Z,5.40
2018-08-27T09:12:43.967Z,4.20
2018-08-27T09:15:12.172Z,3.60
2018-08-27T09:17:40.418Z,4.17
2018-08-27T09:20:09.627Z,7.10
2018-08-27T09:22:37.873Z,6.15
2018-08-27T09:25:06.172Z,6.30
2018-08-27T09:27:34.780Z,6.70
2018-08-27T09:30:03.009Z,6.30
2018-08-27T09:32:31.252Z,10.40
2018-08-27T09:34:59.498Z,6.05
2018-08-27T09:37:27.780Z,6.85
2018-08-27T09:39:55.941Z,7.30
2018-08-27T09:42:24.190Z,5.37
2018-08-27T09:44:52.389Z,5.67
2018-08-27T09:47:20.650Z,5.75
2018-08-27T09:49:48.865Z,5.45
2018-08-27T09:52:17.120Z,6.65
2018-08-27T09:54:45.336Z,8.23
2018-08-27T09:57:13.593Z,7.35
2018-08-27T09:59:41.864Z,6.10
2018-08-27T10:02:10.072Z,4.87
2018-08-27T10:04:38.300Z,5.50
2018-08-27T10:07:06.513Z,4.60
2018-08-27T10:09:34.747Z,5.00
2018-08-27T10:12:02.968Z,4.67
2018-08-27T10:14:31.216Z,5.22
2018-08-27T10:16:59.444Z,6.58
2018-08-27T10:19:27.684Z,7.00
2018-08-27T10:21:55.889Z,4.45
2018-08-27T10:24:24.118Z,3.70
2018-08-27T10:26:52.373Z,5.40
2018-08-27T10:29:20.607Z,7.00
2018-08-27T10:31:49.009Z,8.13
2018-08-27T10:34:17.267Z,5.80
2018-08-27T10:36:45.525Z,5.53
2018-08-27T10:39:13.772Z,4.53
2018-08-27T10:41:41.996Z,5.13
2018-08-27T10:44:10.233Z,7.50
2018-08-27T10:46:38.459Z,4.28
2018-08-27T10:49:06.697Z,5.70
2018-08-27T10:51:34.993Z,5.53
2018-08-27T10:54:03.237Z,6.57
2018-08-27T10:56:31.448Z,3.80
2018-08-27T10:58:59.667Z,8.17
2018-08-27T11:01:27.876Z,3.62
2018-08-27T11:03:56.160Z,6.55
2018-08-27T11:06:24.388Z,5.00
2018-08-27T11:08:52.640Z,3.85
2018-08-27T11:11:20.883Z,7.33
2018-08-27T11:13:49.110Z,6.60
2018-08-27T11:16:17.321Z,6.42
2018-08-27T11:18:45.571Z,7.78
2018-08-27T11:21:13.794Z,6.03
2018-08-27T11:23:42.040Z,9.50
2018-08-27T11:26:10.255Z,6.80
2018-08-27T11:28:38.504Z,8.40
2018-08-27T11:31:06.728Z,9.45
2018-08-27T11:33:34.989Z,8.85
2018-08-27T11:36:03.242Z,10.30
2018-08-27T11:38:31.500Z,10.77
2018-08-27T11:40:59.724Z,11.00
2018-08-27T11:43:28.047Z,14.83
2018-08-27T11:45:56.228Z,12.00
2018-08-27T11:48:24.452Z,15.17
2018-08-27T11:50:52.887Z,14.10
2018-08-27T11:53:21.020Z,14.53
2018-08-27T11:55:49.269Z,14.00
2018-08-27T11:58:17.540Z,14.33
2018-08-27T12:00:51.048Z,13.05
2018-08-27T12:03:19.277Z,14.28
2018-08-27T12:05:47.656Z,14.20
2018-08-27T12:08:15.883Z,13.85
2018-08-27T12:10:44.128Z,17.52
2018-08-27T12:13:12.373Z,17.50
2018-08-27T12:15:40.608Z,15.63
2018-08-27T12:18:08.813Z,14.07
2018-08-27T12:20:37.049Z,13.20
2018-08-27T12:23:05.460Z,16.54
2018-08-27T12:25:33.689Z,15.00
2018-08-27T12:28:01.912Z,14.78
2018-08-27T12:30:30.150Z,16.80
2018-08-27T12:32:58.368Z,14.47
2018-08-27T12:35:26.597Z,13.47
2018-08-27T12:37:54.847Z,15.08
2018-08-27T12:40:23.066Z,14.13
2018-08-27T12:42:51.300Z,12.13
2018-08-27T12:45:19.522Z,12.87
2018-08-27T12:47:47.744Z,12.90
2018-08-27T12:50:16.005Z,12.17
2018-08-27T12:52:44.245Z,12.30
2018-08-27T12:55:12.524Z,13.20
2018-08-27T12:57:40.748Z,12.23
2018-08-27T13:00:13.576Z,14.00
2018-08-27T13:02:41.816Z,13.50
2018-08-27T13:05:10.683Z,15.97
2018-08-27T13:07:39.007Z,13.77
2018-08-27T13:10:07.308Z,14.60
2018-08-27T13:12:35.614Z,17.13
2018-08-27T13:15:03.816Z,13.65
2018-08-27T13:17:32.031Z,15.33
2018-08-27T13:20:00.305Z,15.48
2018-08-27T13:22:30.913Z,15.52
2018-08-27T13:24:59.832Z,16.42
2018-08-27T13:27:28.222Z,13.22
2018-08-27T13:29:56.755Z,15.95
2018-08-27T13:32:25.532Z,12.50
2018-08-27T13:34:54.101Z,11.35
2018-08-27T13:37:22.488Z,12.90
2018-08-27T13:39:50.822Z,12.93
2018-08-27T13:42:19.129Z,13.68
2018-08-27T13:44:47.397Z,13.00
2018-08-27T13:47:16.221Z,12.95
2018-08-27T13:49:44.684Z,13.93
2018-08-27T13:52:13.228Z,14.17
2018-08-27T13:54:41.496Z,14.80
2018-08-27T13:57:10.061Z,17.62
2018-08-27T13:59:38.440Z,16.90
2018-08-27T14:02:07.298Z,11.00
2018-08-27T14:04:36.096Z,14.20
2018-08-27T14:07:04.641Z,13.65
2018-08-27T14:09:32.954Z,12.93
2018-08-27T14:12:01.582Z,18.70
2018-08-27T14:14:29.824Z,12.20
2018-08-27T14:16:58.080Z,11.90
2018-08-27T14:19:26.813Z,13.70
2018-08-27T14:21:55.542Z,10.43
2018-08-27T14:24:24.204Z,11.50
2018-08-27T14:26:53.852Z,13.32
2018-08-27T14:29:23.576Z,12.53
2018-08-27T14:31:52.254Z,9.57
2018-08-27T14:34:20.420Z,14.13
2018-08-27T14:36:49.433Z,10.93
2018-08-27T14:39:17.682Z,11.40
2018-08-27T14:41:45.982Z,17.53
2018-08-27T14:44:14.248Z,14.93
2018-08-27T14:46:43.001Z,18.20
2018-08-27T14:49:11.539Z,16.05
2018-08-27T14:51:40.040Z,16.93
2018-08-27T14:54:08.772Z,16.53
2018-08-27T14:56:37.307Z,14.50
2018-08-27T14:59:05.751Z,16.13
2018-08-27T15:01:34.264Z,18.40
2018-08-27T15:04:02.725Z,16.65
2018-08-27T15:06:31.317Z,16.93
2018-08-27T15:08:59.727Z,17.73
2018-08-27T15:11:28.111Z,19.62
2018-08-27T15:13:56.463Z,21.15
2018-08-27T15:16:24.719Z,20.43
2018-08-27T15:18:53.456Z,18.93
2018-08-27T15:21:22.104Z,18.15
2018-08-27T15:23:50.556Z,17.42
2018-08-27T15:26:19.025Z,14.70
2018-08-27T15:28:47.495Z,17.43
2018-08-27T15:31:16.200Z,16.53
2018-08-27T15:33:44.413Z,12.87
2018-08-27T15:36:12.656Z,17.70
2018-08-27T15:38:41.184Z,17.07
2018-08-27T15:41:09.640Z,16.05
2018-08-27T15:43:38.046Z,16.02
2018-08-27T15:46:11.637Z,16.66
2018-08-27T15:48:39.944Z,22.07
2018-08-27T15:51:08.304Z,19.15
2018-08-27T15:53:36.562Z,18.57
2018-08-27T15:56:04.991Z,19.47
2018-08-27T15:58:33.322Z,17.52
2018-08-27T16:01:01.721Z,16.33
2018-08-27T16:03:30.062Z,19.87
2018-08-27T16:05:58.369Z,17.17
2018-08-27T16:08:26.685Z,14.55
2018-08-27T16:10:55.029Z,14.57
2018-08-27T16:13:23.304Z,21.75
2018-08-27T16:15:51.559Z,19.12
2018-08-27T16:18:19.876Z,20.32
2018-08-27T16:20:48.241Z,18.67
2018-08-27T16:23:16.552Z,14.57
2018-08-27T16:25:45.211Z,15.00
2018-08-27T16:28:13.712Z,16.82
2018-08-27T16:30:41.964Z,17.53
2018-08-27T16:33:11.489Z,14.13
2018-08-27T16:35:40.401Z,15.35
2018-08-27T16:38:08.947Z,20.00
2018-08-27T16:40:37.227Z,13.15
2018-08-27T16:43:05.480Z,13.93
2018-08-27T16:45:33.703Z,17.05
2018-08-27T16:48:02.124Z,17.23
2018-08-27T16:50:30.368Z,21.07
2018-08-27T16:52:58.648Z,14.00
2018-08-27T16:55:26.968Z,17.25
2018-08-27T16:57:55.321Z,17.55
2018-08-27T17:00:23.598Z,14.85
2018-08-27T17:02:51.885Z,15.67
2018-08-27T17:05:20.149Z,16.42
2018-08-27T17:07:48.448Z,11.87
2018-08-27T17:10:16.810Z,17.12
2018-08-27T17:12:46.128Z,20.37
2018-08-27T17:15:14.668Z,13.87
2018-08-27T17:17:42.957Z,18.67
2018-08-27T17:20:11.558Z,16.37
2018-08-27T17:22:41.188Z,13.13
2018-08-27T17:25:09.864Z,14.70
2018-08-27T17:27:38.377Z,16.80
2018-08-27T17:30:07.214Z,17.42
2018-08-27T17:32:35.824Z,14.05
2018-08-27T17:35:04.206Z,16.82
2018-08-27T17:37:32.597Z,13.32
2018-08-27T17:40:01.340Z,11.53
2018-08-27T17:42:29.991Z,14.85
2018-08-27T17:44:59.883Z,14.55
2018-08-27T17:47:28.092Z,16.17
2018-08-27T17:49:56.552Z,13.37
2018-08-27T17:52:25.545Z,17.67
2018-08-27T17:54:54.005Z,17.70
2018-08-27T17:57:22.329Z,17.43
2018-08-27T17:59:50.662Z,19.45
2018-08-27T18:02:19.005Z,18.40
2018-08-27T18:04:47.424Z,16.60
2018-08-27T18:07:15.830Z,19.67
2018-08-27T18:09:44.481Z,15.40
2018-08-27T18:12:12.785Z,17.27
2018-08-27T18:14:41.135Z,20.20
2018-08-27T18:17:09.436Z,17.40
2018-08-27T18:19:37.799Z,13.25
2018-08-27T18:22:06.414Z,13.88
2018-08-27T18:24:34.847Z,16.67
2018-08-27T18:27:03.144Z,16.27
2018-08-27T18:29:31.489Z,20.30
2018-08-27T18:31:59.757Z,23.73
2018-08-27T18:34:28.038Z,19.40
2018-08-27T18:36:56.342Z,18.42
2018-08-27T18:39:24.658Z,19.30
2018-08-27T18:41:52.927Z,18.50
2018-08-27T18:44:22.796Z,18.45
2018-08-27T18:46:51.568Z,23.27
2018-08-27T18:49:19.833Z,17.20
2018-08-27T18:51:48.175Z,19.00
2018-08-27T18:54:16.358Z,21.83
2018-08-27T18:56:44.637Z,19.93
2018-08-27T18:59:13.896Z,17.57
2018-08-27T19:01:44.156Z,14.77
2018-08-27T19:04:12.712Z,22.10
2018-08-27T19:06:41.062Z,18.90
2018-08-27T19:09:10.123Z,18.40
2018-08-27T19:11:38.395Z,19.70
2018-08-27T19:14:07.450Z,21.13
2018-08-27T19:16:36.281Z,18.90
2018-08-27T19:19:04.662Z,19.00
2018-08-27T19:21:33.019Z,26.15
2018-08-27T19:24:01.768Z,23.60
2018-08-27T19:26:30.000Z,18.85
2018-08-27T19:28:58.484Z,20.00
2018-08-27T19:31:26.784Z,21.20
2018-08-27T19:33:55.891Z,19.60
2018-08-27T19:36:24.342Z,23.65
2018-08-27T19:38:52.732Z,18.27
2018-08-27T19:41:21.006Z,22.40
2018-08-27T19:43:50.403Z,26.52
2018-08-27T19:46:18.878Z,18.67
2018-08-27T19:48:47.009Z,17.67
2018-08-27T19:51:15.385Z,18.57
2018-08-27T19:53:43.736Z,19.00
2018-08-27T19:56:12.742Z,20.30
2018-08-27T19:58:41.076Z,23.07
2018-08-27T20:01:09.444Z,23.42
2018-08-27T20:03:37.807Z,21.73
2018-08-27T20:06:06.137Z,21.60
2018-08-27T20:08:34.427Z,18.50
2018-08-27T20:11:02.716Z,17.35
2018-08-27T20:13:31.052Z,19.82
2018-08-27T20:15:59.359Z,20.83
2018-08-27T20:18:27.667Z,22.77
2018-08-27T20:20:55.925Z,26.17
2018-08-27T20:23:24.229Z,26.62
2018-08-27T20:25:52.570Z,19.52
2018-08-27T20:28:20.796Z,22.30
2018-08-27T20:30:49.073Z,19.87
2018-08-27T20:33:17.417Z,19.17
2018-08-27T20:35:45.676Z,19.77
2018-08-27T20:38:13.930Z,22.50
2018-08-27T20:40:42.204Z,19.27
2018-08-27T20:43:10.433Z,19.23
2018-08-27T20:45:38.734Z,18.67
2018-08-27T20:48:07.065Z,20.70
2018-08-27T20:50:35.393Z,14.67
2018-08-27T20:53:03.617Z,19.80
2018-08-27T20:55:31.866Z,18.60
2018-08-27T20:58:00.180Z,19.65
2018-08-27T21:00:28.444Z,19.20
2018-08-27T21:02:56.750Z,16.95
2018-08-27T21:05:24.944Z,20.00
2018-08-27T21:07:53.173Z,22.02
2018-08-27T21:10:22.305Z,18.73
2018-08-27T21:12:50.529Z,18.25
2018-08-27T21:15:18.794Z,22.20
2018-08-27T21:17:50.337Z,20.80
2018-08-27T21:20:19.280Z,19.10
2018-08-27T21:22:47.577Z,19.52
2018-08-27T21:25:16.503Z,15.80
2018-08-27T21:27:45.655Z,17.75
2018-08-27T21:30:15.292Z,19.50
2018-08-27T21:32:43.597Z,22.27
2018-08-27T21:35:11.836Z,17.42
2018-08-27T21:37:40.132Z,17.20
2018-08-27T21:40:08.464Z,16.55
2018-08-27T21:42:36.724Z,18.90
2018-08-27T21:45:05.176Z,16.82
2018-08-27T21:47:33.736Z,18.03
2018-08-27T21:50:02.028Z,17.27
2018-08-27T21:52:30.249Z,16.30
2018-08-27T21:54:58.495Z,15.40
2018-08-27T21:57:26.725Z,16.02
2018-08-27T21:59:54.966Z,16.13
2018-08-27T22:02:28.472Z,15.25
2018-08-27T22:04:56.749Z,15.72
2018-08-27T22:07:24.964Z,15.70
2018-08-27T22:09:53.240Z,18.75
2018-08-27T22:12:21.476Z,18.60
2018-08-27T22:14:51.277Z,20.35
2018-08-27T22:17:19.596Z,16.77
2018-08-27T22:19:47.911Z,16.42
2018-08-27T22:22:16.220Z,16.97
2018-08-27T22:24:44.473Z,17.87
2018-08-27T22:27:12.761Z,14.45
2018-08-27T22:29:41.053Z,21.87
2018-08-27T22:32:09.290Z,17.00
2018-08-27T22:34:37.550Z,14.87
2018-08-27T22:37:06.181Z,17.23
2018-08-27T22:39:34.450Z,14.45
2018-08-27T22:42:02.781Z,14.93
2018-08-27T22:44:31.159Z,16.20
2018-08-27T22:46:59.425Z,13.08
2018-08-27T22:49:27.660Z,16.02
2018-08-27T22:51:55.939Z,14.53
2018-08-27T22:54:24.156Z,15.40
2018-08-27T22:56:52.383Z,14.13
2018-08-27T22:59:20.716Z,16.42
2018-08-27T23:01:49.741Z,17.30
2018-08-27T23:04:23.196Z,17.57
2018-08-27T23:06:51.419Z,18.45
2018-08-27T23:09:19.653Z,14.65
2018-08-27T23:11:47.896Z,19.02
2018-08-27T23:14:16.136Z,17.57
2018-08-27T23:16:44.429Z,18.10
2018-08-27T23:19:12.636Z,15.32
2018-08-27T23:21:40.897Z,18.75
2018-08-27T23:24:09.132Z,21.05
2018-08-27T23:26:37.344Z,19.12
2018-08-27T23:29:05.602Z,19.67
2018-08-27T23:31:33.815Z,22.70
2018-08-27T23:34:02.041Z,15.45
2018-08-27T23:36:30.276Z,19.30
2018-08-27T23:38:58.486Z,18.85
2018-08-27T23:41:26.711Z,19.32
2018-08-27T23:43:54.916Z,21.40
2018-08-27T23:46:23.152Z,26.10
2018-08-27T23:48:51.352Z,24.23
2018-08-27T23:51:19.608Z,22.40
2018-08-27T23:53:47.805Z,21.17
2018-08-27T23:56:16.043Z,22.25
2018-08-27T23:58:44.252Z,24.00
